createdAt,value
2023-02-17T00:01:25.543Z,6.09
2023-02-17T00:03:53.295Z,6.07
2023-02-17T00:06:23.197Z,6.04
2023-02-17T00:08:50.406Z,6.06
2023-02-17T00:11:17.951Z,6.05
2023-02-17T00:13:44.822Z,6.03
2023-02-17T00:16:16.724Z,6.02
2023-02-17T00:18:43.459Z,6.08
2023-02-17T00:21:19.165Z,6.04
2023-02-17T00:23:47.418Z,5.99
2023-02-17T00:26:15.220Z,5.98
2023-02-17T00:28:43.240Z,5.98
2023-02-17T00:31:13.598Z,5.98
2023-02-17T00:33:40.920Z,5.97
2023-02-17T00:36:11.253Z,5.97
2023-02-17T00:38:38.328Z,5.96
2023-02-17T00:41:05.459Z,5.92
2023-02-17T00:43:32.649Z,5.90
2023-02-17T00:45:59.442Z,5.87
2023-02-17T00:48:26.426Z,5.87
2023-02-17T00:50:53.367Z,5.88
2023-02-17T00:53:20.183Z,5.88
2023-02-17T00:55:47.208Z,5.89
2023-02-17T00:58:14.294Z,5.87
2023-02-17T01:00:41.147Z,5.88
2023-02-17T01:03:08.332Z,5.90
2023-02-17T01:05:41.007Z,5.89
2023-02-17T01:08:07.886Z,5.90
2023-02-17T01:10:39.570Z,5.90
2023-02-17T01:13:07.288Z,5.92
2023-02-17T01:15:42.536Z,5.91
2023-02-17T01:18:11.666Z,5.93
2023-02-17T01:20:39.635Z,5.93
2023-02-17T01:23:07.934Z,5.93
2023-02-17T01:25:40.393Z,5.92
2023-02-17T01:28:08.225Z,5.93
2023-02-17T01:30:35.425Z,5.95
2023-02-17T01:33:02.288Z,5.94
2023-02-17T01:35:29.214Z,5.95
2023-02-17T01:37:56.048Z,5.96
2023-02-17T01:40:23.698Z,5.98
2023-02-17T01:42:50.543Z,5.98
2023-02-17T01:45:32.388Z,5.97
2023-02-17T01:48:14.940Z,5.98
2023-02-17T01:50:50.462Z,6.01
2023-02-17T01:53:21.728Z,6.01
2023-02-17T01:55:48.922Z,6.02
2023-02-17T01:58:18.361Z,6.01
2023-02-17T02:00:47.699Z,6.02
2023-02-17T02:03:14.803Z,6.03
2023-02-17T02:05:42.418Z,6.05
2023-02-17T02:08:10.678Z,6.03
2023-02-17T02:10:37.583Z,6.05
2023-02-17T02:13:06.743Z,6.07
2023-02-17T02:15:57.790Z,6.07
2023-02-17T02:18:48.526Z,6.09
2023-02-17T02:21:52.522Z,6.10
2023-02-17T02:24:46.909Z,6.11
2023-02-17T02:27:31.452Z,6.12
2023-02-17T02:30:24.780Z,6.11
2023-02-17T02:33:31.497Z,6.14
2023-02-17T02:36:05.958Z,6.13
2023-02-17T02:38:42.080Z,6.13
2023-02-17T02:41:16.798Z,6.14
2023-02-17T02:43:44.452Z,6.16
2023-02-17T02:46:11.632Z,6.18
2023-02-17T02:48:39.239Z,6.17
2023-02-17T02:51:31.126Z,6.14
2023-02-17T02:54:16.685Z,6.16
2023-02-17T02:57:09.123Z,6.15
2023-02-17T02:59:53.529Z,6.17
2023-02-17T03:03:00.273Z,6.17
2023-02-17T03:05:45.964Z,6.16
2023-02-17T03:08:18.063Z,6.17
2023-02-17T03:10:50.685Z,6.16
2023-02-17T03:13:18.812Z,6.16
2023-02-17T03:15:46.532Z,6.17
2023-02-17T03:18:13.569Z,6.17
2023-02-17T03:20:48.528Z,6.16
2023-02-17T03:23:15.548Z,6.18
2023-02-17T03:25:43.385Z,6.18
2023-02-17T03:28:10.424Z,6.18
2023-02-17T03:30:38.111Z,6.20
2023-02-17T03:33:05.047Z,6.21
2023-02-17T03:35:31.987Z,6.22
2023-02-17T03:37:58.965Z,6.21
2023-02-17T03:40:25.771Z,6.19
2023-02-17T03:42:52.766Z,6.20
2023-02-17T03:45:19.568Z,6.21
2023-02-17T03:47:46.451Z,6.21
2023-02-17T03:50:13.355Z,6.22
2023-02-17T03:52:40.282Z,6.22
2023-02-17T03:55:07.550Z,6.23
2023-02-17T03:57:34.865Z,6.20
2023-02-17T04:00:01.757Z,6.20
2023-02-17T04:02:28.993Z,6.21
2023-02-17T04:04:55.893Z,6.22
2023-02-17T04:07:22.959Z,6.21
2023-02-17T04:09:49.801Z,6.23
2023-02-17T04:12:16.611Z,6.23
2023-02-17T04:14:43.549Z,6.23
2023-02-17T04:17:10.342Z,6.23
2023-02-17T04:19:37.170Z,6.22
2023-02-17T04:22:04.822Z,6.22
2023-02-17T04:24:31.643Z,6.21
2023-02-17T04:26:58.465Z,6.22
2023-02-17T04:29:25.402Z,6.25
2023-02-17T04:31:52.334Z,6.25
2023-02-17T04:34:19.204Z,6.26
2023-02-17T04:36:46.086Z,6.26
2023-02-17T04:39:12.945Z,6.28
2023-02-17T04:41:39.895Z,6.29
2023-02-17T04:44:06.720Z,6.31
2023-02-17T04:46:33.562Z,6.31
2023-02-17T04:49:00.534Z,6.33
2023-02-17T04:51:27.445Z,6.30
2023-02-17T04:53:54.380Z,6.31
2023-02-17T04:56:21.320Z,6.30
2023-02-17T04:58:48.258Z,6.32
2023-02-17T05:01:15.102Z,6.31
2023-02-17T05:03:42.216Z,6.28
2023-02-17T05:06:09.098Z,6.29
2023-02-17T05:08:35.897Z,6.30
2023-02-17T05:11:02.967Z,6.28
2023-02-17T05:13:29.823Z,6.23
2023-02-17T05:15:56.795Z,6.23
2023-02-17T05:18:23.640Z,6.23
2023-02-17T05:20:50.580Z,6.21
2023-02-17T05:23:17.422Z,6.22
2023-02-17T05:25:44.499Z,6.23
2023-02-17T05:28:11.288Z,6.22
2023-02-17T05:30:38.291Z,6.22
2023-02-17T05:33:05.121Z,6.21
2023-02-17T05:35:35.170Z,6.22
2023-02-17T05:38:02.194Z,6.22
2023-02-17T05:40:29.007Z,6.23
2023-02-17T05:42:55.853Z,6.22
2023-02-17T05:45:23.219Z,6.21
2023-02-17T05:47:50.031Z,6.22
2023-02-17T05:50:17.166Z,6.17
2023-02-17T05:52:44.050Z,6.12
2023-02-17T05:55:10.981Z,6.13
2023-02-17T05:57:37.956Z,6.11
2023-02-17T06:00:05.737Z,6.12
2023-02-17T06:02:38.827Z,6.13
2023-02-17T06:05:06.097Z,6.14
2023-02-17T06:07:32.984Z,6.16
2023-02-17T06:09:59.852Z,6.15
2023-02-17T06:12:26.799Z,6.11
2023-02-17T06:14:53.830Z,6.11
2023-02-17T06:17:20.632Z,6.11
2023-02-17T06:19:47.541Z,6.11
2023-02-17T06:22:14.370Z,6.10
2023-02-17T06:24:41.338Z,6.11
2023-02-17T06:27:08.272Z,6.11
2023-02-17T06:29:35.320Z,6.11
2023-02-17T06:32:02.463Z,6.13
2023-02-17T06:34:29.518Z,6.14
2023-02-17T06:36:56.838Z,6.13
2023-02-17T06:39:23.761Z,6.15
2023-02-17T06:41:50.805Z,6.15
2023-02-17T06:44:17.783Z,6.18
2023-02-17T06:46:46.920Z,6.21
2023-02-17T06:49:14.763Z,6.20
2023-02-17T06:51:41.755Z,6.21
2023-02-17T06:54:09.279Z,6.15
2023-02-17T06:56:36.617Z,6.17
2023-02-17T06:59:03.678Z,6.17
2023-02-17T07:01:30.675Z,6.19
2023-02-17T07:03:57.901Z,6.24
2023-02-17T07:06:25.517Z,6.23
2023-02-17T07:08:52.923Z,6.23
2023-02-17T07:11:20.266Z,6.27
2023-02-17T07:13:47.489Z,6.29
2023-02-17T07:16:15.185Z,6.29
2023-02-17T07:18:42.401Z,6.35
2023-02-17T07:21:10.228Z,6.37
2023-02-17T07:23:38.358Z,6.41
2023-02-17T07:26:09.210Z,6.43
2023-02-17T07:28:36.818Z,6.43
2023-02-17T07:31:12.499Z,6.43
2023-02-17T07:33:40.087Z,6.45
2023-02-17T07:36:09.807Z,6.46
2023-02-17T07:38:37.369Z,6.50
2023-02-17T07:41:08.818Z,6.50
2023-02-17T07:43:36.018Z,6.47
2023-02-17T07:46:04.863Z,6.48
2023-02-17T07:48:32.426Z,6.50
2023-02-17T07:51:07.873Z,6.50
2023-02-17T07:53:35.759Z,6.46
2023-02-17T07:56:05.401Z,6.46
2023-02-17T07:58:33.756Z,6.46
2023-02-17T08:01:22.833Z,6.45
2023-02-17T08:03:50.916Z,6.51
2023-02-17T08:06:20.383Z,6.49
2023-02-17T08:09:07.653Z,6.48
2023-02-17T08:11:54.758Z,6.50
2023-02-17T08:14:23.407Z,6.52
2023-02-17T08:16:50.305Z,6.51
2023-02-17T08:19:17.620Z,6.52
2023-02-17T08:21:44.656Z,6.56
2023-02-17T08:24:12.416Z,6.59
2023-02-17T08:26:39.813Z,6.58
2023-02-17T08:29:06.769Z,6.56
2023-02-17T08:31:35.949Z,6.52
2023-02-17T08:34:05.928Z,6.54
2023-02-17T08:36:33.078Z,6.58
2023-02-17T08:39:00.732Z,6.66
2023-02-17T08:41:31.117Z,6.67
2023-02-17T08:43:59.979Z,6.67
2023-02-17T08:46:27.042Z,6.63
2023-02-17T08:48:54.639Z,6.64
2023-02-17T08:51:23.812Z,6.62
2023-02-17T08:53:51.488Z,6.62
2023-02-17T08:56:18.455Z,6.62
2023-02-17T08:58:45.378Z,6.63
2023-02-17T09:01:12.523Z,6.58
2023-02-17T09:03:40.271Z,6.57
2023-02-17T09:06:08.651Z,6.59
2023-02-17T09:08:35.875Z,6.57
2023-02-17T09:11:02.962Z,6.57
2023-02-17T09:13:29.956Z,6.52
2023-02-17T09:15:57.133Z,6.50
2023-02-17T09:18:24.469Z,6.52
2023-02-17T09:20:51.922Z,6.53
2023-02-17T09:23:19.656Z,6.55
2023-02-17T09:25:46.957Z,6.52
2023-02-17T09:28:17.127Z,6.53
2023-02-17T09:30:44.374Z,6.50
2023-02-17T09:33:11.477Z,6.48
2023-02-17T09:35:39.040Z,6.43
2023-02-17T09:38:05.972Z,6.45
2023-02-17T09:40:43.745Z,6.49
2023-02-17T09:43:16.440Z,6.49
2023-02-17T09:45:48.004Z,6.50
2023-02-17T09:48:16.980Z,6.52
2023-02-17T09:51:23.661Z,6.47
2023-02-17T09:54:03.588Z,6.48
2023-02-17T09:56:37.548Z,6.56
2023-02-17T09:59:14.866Z,6.61
2023-02-17T10:01:43.607Z,6.64
2023-02-17T10:04:16.185Z,6.66
2023-02-17T10:06:46.914Z,6.65
2023-02-17T10:09:37.638Z,6.62
2023-02-17T10:12:09.862Z,6.72
2023-02-17T10:15:00.930Z,6.72
2023-02-17T10:17:37.935Z,6.76
2023-02-17T10:20:34.965Z,6.71
2023-02-17T10:23:07.710Z,6.81
2023-02-17T10:26:14.743Z,6.84
2023-02-17T10:28:54.443Z,6.84
2023-02-17T10:31:45.258Z,6.80
2023-02-17T10:34:41.931Z,6.78
2023-02-17T10:37:29.336Z,6.84
2023-02-17T10:39:58.561Z,6.88
2023-02-17T10:42:28.353Z,6.88
2023-02-17T10:45:02.124Z,6.91
2023-02-17T10:47:29.790Z,6.88
2023-02-17T10:49:57.142Z,6.85
2023-02-17T10:52:31.115Z,6.89
2023-02-17T10:55:06.531Z,6.87
2023-02-17T10:57:39.622Z,6.85
2023-02-17T11:00:09.435Z,6.83
2023-02-17T11:02:44.596Z,6.85
2023-02-17T11:05:28.321Z,6.83
2023-02-17T11:07:57.637Z,6.80
2023-02-17T11:10:34.395Z,6.77
2023-02-17T11:13:03.729Z,6.76
2023-02-17T11:15:44.797Z,6.72
2023-02-17T11:18:19.697Z,6.69
2023-02-17T11:20:47.386Z,6.67
2023-02-17T11:23:24.490Z,6.62
2023-02-17T11:26:01.339Z,6.54
2023-02-17T11:28:28.472Z,6.58
2023-02-17T11:30:57.887Z,6.58
2023-02-17T11:33:35.180Z,6.52
2023-02-17T11:36:02.991Z,6.53
2023-02-17T11:38:42.551Z,6.54
2023-02-17T11:41:11.239Z,6.52
2023-02-17T11:43:39.461Z,6.54
2023-02-17T11:46:44.136Z,6.56
2023-02-17T11:49:41.406Z,6.58
2023-02-17T11:52:35.642Z,6.58
2023-02-17T11:55:19.768Z,6.55
2023-02-17T11:58:26.434Z,6.53
2023-02-17T12:01:27.863Z,6.58
2023-02-17T12:04:28.259Z,6.63
2023-02-17T12:07:17.979Z,6.59
2023-02-17T12:10:04.835Z,6.56
2023-02-17T12:12:53.658Z,6.59
2023-02-17T12:15:43.961Z,6.62
2023-02-17T12:18:38.443Z,6.61
2023-02-17T12:21:31.491Z,6.61
2023-02-17T12:24:18.245Z,6.63
2023-02-17T12:26:54.300Z,6.61
2023-02-17T12:29:41.705Z,6.56
2023-02-17T12:32:38.140Z,6.60
2023-02-17T12:35:16.472Z,6.61
2023-02-17T12:37:50.597Z,6.61
2023-02-17T12:40:45.940Z,6.61
2023-02-17T12:43:52.707Z,6.64
2023-02-17T12:46:23.961Z,6.66
2023-02-17T12:49:03.192Z,6.64
2023-02-17T12:51:33.839Z,6.65
2023-02-17T12:54:28.690Z,6.65
2023-02-17T12:57:15.014Z,6.71
2023-02-17T12:59:44.581Z,6.72
2023-02-17T13:02:17.774Z,6.71
2023-02-17T13:04:56.117Z,6.73
2023-02-17T13:07:47.156Z,6.77
2023-02-17T13:10:29.981Z,6.77
2023-02-17T13:13:03.366Z,6.76
2023-02-17T13:15:34.702Z,6.78
2023-02-17T13:18:10.454Z,6.79
2023-02-17T13:20:56.287Z,6.80
2023-02-17T13:23:54.151Z,6.80
2023-02-17T13:26:37.270Z,6.78
2023-02-17T13:29:59.258Z,6.77
2023-02-17T13:32:38.135Z,6.76
2023-02-17T13:35:30.410Z,6.73
2023-02-17T13:38:13.621Z,6.74
2023-02-17T13:40:48.608Z,6.76
2023-02-17T13:43:20.036Z,6.78
2023-02-17T13:45:54.499Z,6.80
2023-02-17T13:48:30.385Z,6.82
2023-02-17T13:51:00.899Z,6.82
2023-02-17T13:53:39.640Z,6.82
2023-02-17T13:56:13.018Z,6.80
2023-02-17T13:58:41.960Z,6.85
2023-02-17T14:01:15.350Z,6.83
2023-02-17T14:03:51.437Z,6.87
2023-02-17T14:06:28.449Z,6.87
2023-02-17T14:08:56.538Z,6.90
2023-02-17T14:11:25.517Z,6.91
2023-02-17T14:13:55.089Z,6.93
2023-02-17T14:16:45.635Z,6.96
2023-02-17T14:19:15.618Z,6.93
2023-02-17T14:21:44.956Z,6.97
2023-02-17T14:24:32.954Z,6.99
2023-02-17T14:27:03.097Z,7.00
2023-02-17T14:29:50.460Z,7.00
2023-02-17T14:32:32.563Z,6.99
2023-02-17T14:35:21.193Z,6.99
2023-02-17T14:37:52.335Z,7.01
2023-02-17T14:40:41.694Z,7.03
2023-02-17T14:43:12.739Z,7.06
2023-02-17T14:45:40.997Z,7.07
2023-02-17T14:48:08.277Z,7.06
2023-02-17T14:50:42.335Z,7.07
2023-02-17T14:53:13.918Z,7.10
2023-02-17T14:55:47.044Z,7.12
2023-02-17T14:58:22.140Z,7.13
2023-02-17T15:00:50.145Z,7.14
2023-02-17T15:03:17.271Z,7.15
2023-02-17T15:05:44.666Z,7.16
2023-02-17T15:08:14.644Z,7.18
2023-02-17T15:10:41.954Z,7.22
2023-02-17T15:13:17.646Z,7.23
2023-02-17T15:15:45.395Z,7.26
2023-02-17T15:18:12.686Z,7.30
2023-02-17T15:20:41.437Z,7.30
2023-02-17T15:23:17.041Z,7.32
2023-02-17T15:25:44.492Z,7.32
2023-02-17T15:28:13.728Z,7.34
2023-02-17T15:30:40.737Z,7.35
2023-02-17T15:33:12.706Z,7.36
2023-02-17T15:35:40.008Z,7.44
2023-02-17T15:38:09.019Z,7.42
2023-02-17T15:40:36.759Z,7.43
2023-02-17T15:43:03.937Z,7.45
2023-02-17T15:45:31.430Z,7.45
2023-02-17T15:48:03.808Z,7.46
2023-02-17T15:50:30.746Z,7.49
2023-02-17T15:52:57.709Z,7.53
2023-02-17T15:55:24.686Z,7.55
2023-02-17T15:57:57.387Z,7.54
2023-02-17T16:00:27.169Z,7.57
2023-02-17T16:02:54.733Z,7.59
2023-02-17T16:05:23.849Z,7.61
2023-02-17T16:07:51.283Z,7.62
2023-02-17T16:10:21.222Z,7.62
2023-02-17T16:12:49.771Z,7.69
2023-02-17T16:15:19.558Z,7.73
2023-02-17T16:17:47.849Z,7.75
2023-02-17T16:20:24.670Z,7.78
2023-02-17T16:22:52.000Z,7.82
2023-02-17T16:25:20.633Z,7.86
2023-02-17T16:27:48.845Z,7.85
2023-02-17T16:30:24.772Z,7.88
2023-02-17T16:32:52.562Z,7.91
2023-02-17T16:35:22.615Z,7.93
2023-02-17T16:37:55.470Z,7.94
2023-02-17T16:40:25.298Z,7.96
2023-02-17T16:42:52.561Z,7.98
2023-02-17T16:45:22.411Z,8.01
2023-02-17T16:47:52.229Z,8.03
2023-02-17T16:50:30.966Z,8.08
2023-02-17T16:53:00.561Z,8.07
2023-02-17T16:55:29.993Z,8.08
2023-02-17T16:57:56.973Z,8.08
2023-02-17T17:00:27.942Z,8.12
2023-02-17T17:02:54.982Z,8.12
2023-02-17T17:05:22.152Z,8.13
2023-02-17T17:07:51.245Z,8.14
2023-02-17T17:10:21.781Z,8.13
2023-02-17T17:12:49.163Z,8.17
2023-02-17T17:15:17.434Z,8.20
2023-02-17T17:17:47.867Z,8.21
2023-02-17T17:20:18.165Z,8.23
2023-02-17T17:22:46.930Z,8.25
2023-02-17T17:25:15.893Z,8.30
2023-02-17T17:27:45.342Z,8.35
2023-02-17T17:30:18.069Z,8.41
2023-02-17T17:32:46.054Z,8.55
2023-02-17T17:35:14.131Z,8.63
2023-02-17T17:37:40.959Z,8.74
2023-02-17T17:40:08.321Z,8.82
2023-02-17T17:42:37.808Z,8.92
2023-02-17T17:45:06.478Z,8.99
2023-02-17T17:47:33.735Z,9.02
2023-02-17T17:50:01.177Z,9.13
2023-02-17T17:52:28.345Z,9.10
2023-02-17T17:54:56.814Z,9.05
2023-02-17T17:57:24.574Z,8.91
2023-02-17T17:59:53.709Z,8.77
2023-02-17T18:02:22.448Z,8.69
2023-02-17T18:04:54.475Z,8.68
2023-02-17T18:07:22.778Z,8.62
2023-02-17T18:09:50.681Z,8.51
2023-02-17T18:12:18.888Z,8.49
2023-02-17T18:14:49.102Z,8.54
2023-02-17T18:17:20.784Z,8.53
2023-02-17T18:19:48.273Z,8.67
2023-02-17T18:22:15.331Z,8.62
2023-02-17T18:24:42.408Z,8.51
2023-02-17T18:27:09.257Z,8.47
2023-02-17T18:29:36.172Z,8.39
2023-02-17T18:32:03.217Z,8.43
2023-02-17T18:34:30.361Z,8.29
2023-02-17T18:36:58.192Z,8.18
2023-02-17T18:39:26.446Z,8.23
2023-02-17T18:41:57.050Z,8.12
2023-02-17T18:44:29.554Z,8.20
2023-02-17T18:46:59.308Z,8.07
2023-02-17T18:49:32.150Z,8.06
2023-02-17T18:52:05.232Z,8.13
2023-02-17T18:54:36.310Z,8.18
2023-02-17T18:57:06.190Z,8.16
2023-02-17T18:59:37.393Z,8.13
2023-02-17T19:02:06.574Z,8.07
2023-02-17T19:04:33.519Z,8.01
2023-02-17T19:07:06.204Z,7.98
2023-02-17T19:09:36.774Z,7.93
2023-02-17T19:12:05.892Z,7.89
2023-02-17T19:14:35.486Z,7.95
2023-02-17T19:17:13.108Z,7.98
2023-02-17T19:19:40.638Z,7.92
2023-02-17T19:22:11.726Z,7.95
2023-02-17T19:24:41.616Z,7.89
2023-02-17T19:27:12.539Z,7.88
2023-02-17T19:29:45.197Z,7.75
2023-02-17T19:32:18.663Z,7.76
2023-02-17T19:34:47.097Z,7.77
2023-02-17T19:37:13.997Z,7.60
2023-02-17T19:39:41.127Z,7.51
2023-02-17T19:42:09.336Z,7.45
2023-02-17T19:44:36.951Z,7.35
2023-02-17T19:47:03.864Z,7.41
2023-02-17T19:49:31.284Z,7.48
2023-02-17T19:51:58.236Z,7.41
2023-02-17T19:54:25.614Z,7.43
2023-02-17T19:56:52.595Z,7.47
2023-02-17T19:59:19.838Z,7.51
2023-02-17T20:01:46.779Z,7.47
2023-02-17T20:04:13.916Z,7.44
2023-02-17T20:06:47.566Z,7.33
2023-02-17T20:09:17.651Z,7.27
2023-02-17T20:11:45.515Z,7.28
2023-02-17T20:14:12.765Z,7.31
2023-02-17T20:16:40.086Z,7.29
2023-02-17T20:19:07.490Z,7.42
2023-02-17T20:21:38.633Z,7.32
2023-02-17T20:24:06.263Z,7.37
2023-02-17T20:26:38.020Z,7.38
2023-02-17T20:29:05.451Z,7.39
2023-02-17T20:31:32.539Z,7.37
2023-02-17T20:33:59.499Z,7.25
2023-02-17T20:36:26.400Z,7.21
2023-02-17T20:38:53.366Z,7.31
2023-02-17T20:41:23.104Z,7.22
2023-02-17T20:43:51.194Z,7.23
2023-02-17T20:46:26.592Z,7.24
2023-02-17T20:48:54.147Z,7.40
2023-02-17T20:51:25.307Z,7.43
2023-02-17T20:53:54.105Z,7.23
2023-02-17T20:56:36.597Z,7.28
2023-02-17T20:59:11.117Z,7.22
2023-02-17T21:01:43.903Z,7.28
2023-02-17T21:04:16.057Z,7.17
2023-02-17T21:06:52.842Z,7.21
2023-02-17T21:09:25.684Z,7.24
2023-02-17T21:11:58.715Z,7.17
2023-02-17T21:14:27.745Z,7.17
2023-02-17T21:16:55.431Z,7.19
2023-02-17T21:19:22.593Z,7.16
2023-02-17T21:21:49.926Z,7.25
2023-02-17T21:24:17.229Z,7.31
2023-02-17T21:26:44.250Z,7.29
2023-02-17T21:29:11.112Z,7.31
2023-02-17T21:31:42.186Z,7.19
2023-02-17T21:34:16.592Z,7.21
2023-02-17T21:36:50.857Z,7.10
2023-02-17T21:39:21.894Z,7.10
2023-02-17T21:41:51.689Z,7.10
2023-02-17T21:44:38.982Z,7.13
2023-02-17T21:47:07.001Z,7.10
2023-02-17T21:49:33.924Z,7.09
2023-02-17T21:52:03.627Z,6.92
2023-02-17T21:54:31.600Z,6.88
2023-02-17T21:56:59.806Z,7.00
2023-02-17T21:59:27.809Z,7.05
2023-02-17T22:01:56.057Z,7.02
2023-02-17T22:04:23.873Z,6.91
2023-02-17T22:06:50.779Z,7.08
2023-02-17T22:09:20.039Z,7.01
2023-02-17T22:11:50.480Z,6.84
2023-02-17T22:14:21.329Z,6.79
2023-02-17T22:16:51.961Z,6.85
2023-02-17T22:19:21.838Z,6.82
2023-02-17T22:21:49.948Z,6.84
2023-02-17T22:24:17.086Z,6.89
2023-02-17T22:26:43.947Z,6.83
2023-02-17T22:29:10.892Z,6.81
2023-02-17T22:31:37.994Z,6.75
2023-02-17T22:34:07.206Z,6.82
2023-02-17T22:36:35.201Z,6.68
2023-02-17T22:39:02.730Z,6.61
2023-02-17T22:41:29.820Z,6.54
2023-02-17T22:43:56.728Z,6.48
2023-02-17T22:46:25.440Z,6.47
2023-02-17T22:48:52.443Z,6.49
2023-02-17T22:51:22.506Z,6.35
2023-02-17T22:53:50.004Z,6.45
2023-02-17T22:56:16.829Z,6.32
2023-02-17T22:58:43.712Z,6.31
2023-02-17T23:01:16.564Z,6.24
2023-02-17T23:03:44.369Z,6.31
2023-02-17T23:06:18.814Z,6.22
2023-02-17T23:08:47.053Z,6.31
2023-02-17T23:11:16.366Z,6.17
2023-02-17T23:13:43.733Z,6.25
2023-02-17T23:16:11.667Z,6.04
2023-02-17T23:18:38.564Z,6.01
2023-02-17T23:21:10.691Z,5.89
2023-02-17T23:23:37.734Z,5.97
2023-02-17T23:26:05.120Z,6.02
2023-02-17T23:28:32.142Z,6.00
2023-02-17T23:30:58.999Z,6.09
2023-02-17T23:33:25.907Z,6.11
2023-02-17T23:35:52.807Z,6.11
2023-02-17T23:38:20.637Z,6.15
2023-02-17T23:40:50.048Z,6.14
2023-02-17T23:43:17.906Z,6.11
2023-02-17T23:45:44.956Z,6.18
2023-02-17T23:48:12.124Z,6.12
2023-02-17T23:50:39.257Z,6.11
2023-02-17T23:53:06.694Z,6.12
2023-02-17T23:55:34.006Z,6.17
2023-02-17T23:58:01.133Z,6.11
